Current | Forecast
Updated: 9:00 AM CEST on August 22, 2017
Observed at Cordoba, Spain
Temperature 24°C
Humidity 53%
Dew Point 14°C
Wind North at 0 km/h
Pressure 1017 hPa (Steady)
Conditions Clear
Visibility -
UV N/A
Clouds
Yesterday's Maximum 38°C
Yesterday's Minimum 22°C approx.
Yesterday's Cooling Degree Days 21 approx.
Sunrise7:41 AM CEST
Sunset9:03 PM CEST
Moon Rise8:15 AM CEST
Moon Set9:40 PM CEST
Moon PhaseMoon Phase
New Moon
Raw METARMETAR LEBA 220700Z 00000KT CAVOK 24/14 Q1017


Monday
. High: 89° F.
Tuesday
. High: 82° F.
Wednesday
. High: 78° F.
Thursday
. High: 84° F.
Friday
. High: 89° F.
Saturday
. High: 89° F.
Sunday
. High: 93° F.
Monday
. High: 98° F.

Click here for Marine Information
Scientific forecaster discussion (NWS)

Units: English | Metric

Find the Weather for any City, State or Zipcode, or Country:

U.S. State List | Severe Weather | Tropical Storms | Ski Conditions
United States | Canada | Central America | South America | Asia | Europe | Australia | Africa | Islands

Weather Underground

© Copyright 2017
The Weather Company, LLC